Baring, MO (63531)

10:32 PM CDT on July 25, 2014 (GMT -0500)
Kirksville Regional (KIRK) Elev 965 ft | 40.10 °N, 92.55 °W | Change Station

Current weather conditions updated 37 minutes ago

Clear
Clear
73 °F
Feels Like 73 °F
N
7
Wind Variable Wind from South

Tomorrow is forecast to be Much Warmer than today. Late night thunderstorms tomorrow night.

Today
High -- | Low -- °F
--% Chance of Precip.
Yesterday
High -- | Low -- °F
Precip. -- in
6:00 AM 8:30 PM
Waning Crescent, 1% visible
Pressure 29.83 in
Visibility 10.0 miles
Clouds Clear
Dew Point 68 °F
Humidity 84%
Rainfall 0.11 in
Snow Depth Not available.
UV 0 out of 12
Pollen 6.30 out of 12
Air Quality Not available.
Flu Activity Not available.
METAR KIRK 260255Z AUTO 18006KT 10SM CLR 23/20 A2984 RMK AO2 SLP102 T02280200 53005

More Conditions Fewer Conditions

Pressure 29.83 in
Visibility 10.0 miles
Clouds Clear
Dew Point 68 °F
Humidity 84%
Rainfall 0.11 in
Snow Depth Not available.
UV 0 out of 12
Pollen 6.30 out of 12
Air Quality Not available.
Flu Activity Not available.
METAR KIRK 260255Z AUTO 18006KT 10SM CLR 23/20 A2984 RMK AO2 SLP102 T02280200 53005

More Conditions Fewer Conditions

10-Day Weather Forecast

Almanac

Astronomy

Jul. 25, 2014 Rise Set
Actual Time 6:00 AM CDT 8:30 PM CDT
Civil Twilight 5:29 AM CDT 9:01 PM CDT
Nautical Twilight 4:50 AM CDT 9:39 PM CDT
Astronomical Twilight 4:07 AM CDT 10:22 PM CDT
Moon 5:00 AM CDT (7/25) 7:27 PM CDT (7/25)
Length of Visible Light 15h 31m
Length of Day
14h 29m
Tomorrow will be 1m 47s shorter.
Waning Crescent, 1% of the Moon is Illuminated
Today
Waning Crescent
Jul 26
New
Aug 3
First Quarter
Aug 10
Full
Aug 17
Last Quarter

Today's Extremes

State Highs State Lows

Community

WunderPhotos

Upload Photos

1,737,501 photos uploaded!

Nearby

Snow Depth

Station Depth Elevation
No new snow has been reported.

Earthquake Activity

City Distance Mag. Time & Date
No recent earthquake activity has been reported nearby.
Minimum magnitude displayed is 2.5.

Coastal Water Temperatures

Place Temperature
No Stations Reporting

Nearby Weather Stations

Station Location Temp. Heat Index Dew Point Humidity Wind Precip. Elev Updated Type
La Plata, La Plata, MO 73.4 °F 72 °F 70 °F 89% SE  at  1.6 mph 0.00 in / hr 928 ft 10:32 PM CDT Rapid Fire
Lancaster, MO 72.2 °F - 69 °F 90% ESE  at  0.0 mph - / hr 915 ft 10:23 PM CDT Normal

Show More Stations Show Fewer Stations